sensor_id;sensor_type;location;lat;lon;timestamp;P1;durP1;ratioP1;P2;durP2;ratioP2
25868;SDS011;13688;53.154;18.136;2023-02-22T00:01:30;19.07;;;5.50;;
25868;SDS011;13688;53.154;18.136;2023-02-22T00:06:57;26.03;;;5.53;;
25868;SDS011;13688;53.154;18.136;2023-02-22T00:12:20;18.47;;;5.23;;
25868;SDS011;13688;53.154;18.136;2023-02-22T00:17:43;19.30;;;4.63;;
25868;SDS011;13688;53.154;18.136;2023-02-22T00:23:07;20.67;;;4.63;;
25868;SDS011;13688;53.154;18.136;2023-02-22T00:28:32;15.33;;;4.37;;
25868;SDS011;13688;53.154;18.136;2023-02-22T00:33:55;14.37;;;4.43;;
25868;SDS011;13688;53.154;18.136;2023-02-22T00:39:19;11.80;;;3.40;;
25868;SDS011;13688;53.154;18.136;2023-02-22T00:44:41;12.57;;;3.60;;
25868;SDS011;13688;53.154;18.136;2023-02-22T00:50:04;15.10;;;3.63;;
25868;SDS011;13688;53.154;18.136;2023-02-22T00:55:30;12.83;;;3.50;;
25868;SDS011;13688;53.154;18.136;2023-02-22T01:00:53;17.70;;;3.70;;
25868;SDS011;13688;53.154;18.136;2023-02-22T01:06:15;14.47;;;3.20;;
25868;SDS011;13688;53.154;18.136;2023-02-22T01:11:37;11.63;;;3.13;;
25868;SDS011;13688;53.154;18.136;2023-02-22T01:17:02;11.57;;;3.00;;
25868;SDS011;13688;53.154;18.136;2023-02-22T01:22:25;10.57;;;2.90;;
25868;SDS011;13688;53.154;18.136;2023-02-22T01:27:48;14.77;;;3.43;;
25868;SDS011;13688;53.154;18.136;2023-02-22T01:33:12;13.30;;;3.33;;
25868;SDS011;13688;53.154;18.136;2023-02-22T01:38:37;14.87;;;3.10;;
25868;SDS011;13688;53.154;18.136;2023-02-22T01:44:20;10.83;;;2.87;;
25868;SDS011;13688;53.154;18.136;2023-02-22T01:49:48;8.47;;;2.80;;
25868;SDS011;13688;53.154;18.136;2023-02-22T01:55:13;12.00;;;3.20;;
25868;SDS011;13688;53.154;18.136;2023-02-22T02:00:38;8.40;;;3.00;;
25868;SDS011;13688;53.154;18.136;2023-02-22T02:06:02;9.35;;;3.15;;
25868;SDS011;13688;53.154;18.136;2023-02-22T02:11:28;15.70;;;3.72;;
25868;SDS011;13688;53.154;18.136;2023-02-22T02:16:52;9.13;;;3.17;;
25868;SDS011;13688;53.154;18.136;2023-02-22T02:28:41;9.60;;;3.43;;
25868;SDS011;13688;53.154;18.136;2023-02-22T02:34:23;12.53;;;4.23;;
25868;SDS011;13688;53.154;18.136;2023-02-22T02:39:56;12.67;;;3.10;;
25868;SDS011;13688;53.154;18.136;2023-02-22T02:45:43;9.60;;;4.00;;
25868;SDS011;13688;53.154;18.136;2023-02-22T02:51:10;11.73;;;4.30;;
25868;SDS011;13688;53.154;18.136;2023-02-22T02:56:36;10.93;;;4.00;;
25868;SDS011;13688;53.154;18.136;2023-02-22T03:02:08;10.07;;;4.00;;
25868;SDS011;13688;53.154;18.136;2023-02-22T03:08:01;11.50;;;4.13;;
25868;SDS011;13688;53.154;18.136;2023-02-22T03:13:41;11.10;;;4.90;;
25868;SDS011;13688;53.154;18.136;2023-02-22T03:19:17;8.83;;;3.97;;
25868;SDS011;13688;53.154;18.136;2023-02-22T03:30:32;13.53;;;4.80;;
25868;SDS011;13688;53.154;18.136;2023-02-22T03:35:59;10.23;;;4.73;;
25868;SDS011;13688;53.154;18.136;2023-02-22T03:41:34;13.22;;;4.62;;
25868;SDS011;13688;53.154;18.136;2023-02-22T03:47:00;10.43;;;4.00;;
25868;SDS011;13688;53.154;18.136;2023-02-22T03:57:47;8.33;;;3.53;;
25868;SDS011;13688;53.154;18.136;2023-02-22T04:03:13;9.10;;;4.00;;
25868;SDS011;13688;53.154;18.136;2023-02-22T04:08:36;8.35;;;4.03;;
25868;SDS011;13688;53.154;18.136;2023-02-22T04:14:00;11.23;;;5.17;;
25868;SDS011;13688;53.154;18.136;2023-02-22T04:19:26;11.17;;;4.23;;
25868;SDS011;13688;53.154;18.136;2023-02-22T04:24:49;10.45;;;3.77;;
25868;SDS011;13688;53.154;18.136;2023-02-22T04:30:14;9.00;;;4.20;;
25868;SDS011;13688;53.154;18.136;2023-02-22T04:35:37;10.27;;;4.10;;
25868;SDS011;13688;53.154;18.136;2023-02-22T04:41:00;9.70;;;4.30;;
25868;SDS011;13688;53.154;18.136;2023-02-22T04:46:25;9.60;;;3.97;;
25868;SDS011;13688;53.154;18.136;2023-02-22T04:51:50;10.43;;;4.27;;
25868;SDS011;13688;53.154;18.136;2023-02-22T04:57:13;7.30;;;3.43;;
25868;SDS011;13688;53.154;18.136;2023-02-22T05:02:39;8.27;;;3.60;;
25868;SDS011;13688;53.154;18.136;2023-02-22T05:08:00;8.10;;;3.83;;
25868;SDS011;13688;53.154;18.136;2023-02-22T05:13:24;13.60;;;3.70;;
25868;SDS011;13688;53.154;18.136;2023-02-22T05:18:47;10.53;;;4.50;;
25868;SDS011;13688;53.154;18.136;2023-02-22T05:24:11;8.07;;;4.03;;
25868;SDS011;13688;53.154;18.136;2023-02-22T05:29:33;7.47;;;3.97;;
25868;SDS011;13688;53.154;18.136;2023-02-22T05:34:58;6.83;;;3.63;;
25868;SDS011;13688;53.154;18.136;2023-02-22T05:40:24;9.17;;;3.60;;
25868;SDS011;13688;53.154;18.136;2023-02-22T05:45:48;6.87;;;3.47;;
25868;SDS011;13688;53.154;18.136;2023-02-22T05:51:10;9.00;;;3.08;;
25868;SDS011;13688;53.154;18.136;2023-02-22T05:56:33;7.40;;;3.17;;
25868;SDS011;13688;53.154;18.136;2023-02-22T06:01:57;8.17;;;3.67;;
25868;SDS011;13688;53.154;18.136;2023-02-22T06:07:21;5.73;;;2.73;;
25868;SDS011;13688;53.154;18.136;2023-02-22T06:12:45;7.45;;;2.83;;
25868;SDS011;13688;53.154;18.136;2023-02-22T06:18:08;5.63;;;2.53;;
25868;SDS011;13688;53.154;18.136;2023-02-22T06:23:32;11.70;;;3.85;;
25868;SDS011;13688;53.154;18.136;2023-02-22T06:28:54;17.17;;;8.13;;
25868;SDS011;13688;53.154;18.136;2023-02-22T06:34:17;9.50;;;5.07;;
25868;SDS011;13688;53.154;18.136;2023-02-22T06:39:40;11.83;;;4.47;;
25868;SDS011;13688;53.154;18.136;2023-02-22T06:45:04;18.90;;;4.58;;
25868;SDS011;13688;53.154;18.136;2023-02-22T06:50:28;8.77;;;3.93;;
25868;SDS011;13688;53.154;18.136;2023-02-22T06:55:52;7.87;;;3.72;;
25868;SDS011;13688;53.154;18.136;2023-02-22T07:01:14;11.17;;;5.60;;
25868;SDS011;13688;53.154;18.136;2023-02-22T07:06:37;12.37;;;6.23;;
25868;SDS011;13688;53.154;18.136;2023-02-22T07:12:00;13.07;;;5.67;;
25868;SDS011;13688;53.154;18.136;2023-02-22T07:17:22;9.93;;;5.53;;
25868;SDS011;13688;53.154;18.136;2023-02-22T07:22:45;12.43;;;6.00;;
25868;SDS011;13688;53.154;18.136;2023-02-22T07:28:08;8.03;;;4.87;;
25868;SDS011;13688;53.154;18.136;2023-02-22T07:33:31;10.25;;;5.72;;
25868;SDS011;13688;53.154;18.136;2023-02-22T07:38:54;9.90;;;5.20;;
25868;SDS011;13688;53.154;18.136;2023-02-22T07:44:17;12.70;;;6.15;;
25868;SDS011;13688;53.154;18.136;2023-02-22T07:49:40;9.88;;;5.67;;
25868;SDS011;13688;53.154;18.136;2023-02-22T07:55:02;12.90;;;6.03;;
25868;SDS011;13688;53.154;18.136;2023-02-22T08:00:29;11.57;;;5.97;;
25868;SDS011;13688;53.154;18.136;2023-02-22T08:05:54;12.37;;;6.37;;
25868;SDS011;13688;53.154;18.136;2023-02-22T08:11:18;11.80;;;6.10;;
25868;SDS011;13688;53.154;18.136;2023-02-22T08:16:41;13.62;;;7.03;;
25868;SDS011;13688;53.154;18.136;2023-02-22T08:22:03;12.98;;;6.87;;
25868;SDS011;13688;53.154;18.136;2023-02-22T08:27:27;19.67;;;7.12;;
25868;SDS011;13688;53.154;18.136;2023-02-22T08:32:50;13.98;;;6.75;;
25868;SDS011;13688;53.154;18.136;2023-02-22T08:38:21;13.08;;;7.15;;
25868;SDS011;13688;53.154;18.136;2023-02-22T08:43:44;14.55;;;6.97;;
25868;SDS011;13688;53.154;18.136;2023-02-22T08:49:06;14.00;;;6.12;;
25868;SDS011;13688;53.154;18.136;2023-02-22T08:54:28;15.38;;;5.87;;
25868;SDS011;13688;53.154;18.136;2023-02-22T08:59:51;12.85;;;6.62;;
25868;SDS011;13688;53.154;18.136;2023-02-22T09:05:14;10.98;;;5.78;;
25868;SDS011;13688;53.154;18.136;2023-02-22T09:10:37;8.65;;;4.37;;
25868;SDS011;13688;53.154;18.136;2023-02-22T09:15:59;6.83;;;3.00;;
25868;SDS011;13688;53.154;18.136;2023-02-22T09:21:22;4.97;;;3.30;;
25868;SDS011;13688;53.154;18.136;2023-02-22T09:26:45;6.95;;;3.60;;
25868;SDS011;13688;53.154;18.136;2023-02-22T09:32:09;4.20;;;2.30;;
25868;SDS011;13688;53.154;18.136;2023-02-22T09:37:33;4.75;;;2.90;;
25868;SDS011;13688;53.154;18.136;2023-02-22T09:43:00;3.87;;;2.20;;
25868;SDS011;13688;53.154;18.136;2023-02-22T09:54:30;2.77;;;1.90;;
25868;SDS011;13688;53.154;18.136;2023-02-22T10:00:16;6.70;;;2.87;;
25868;SDS011;13688;53.154;18.136;2023-02-22T10:05:46;7.90;;;3.90;;
25868;SDS011;13688;53.154;18.136;2023-02-22T10:11:21;5.33;;;2.73;;
25868;SDS011;13688;53.154;18.136;2023-02-22T10:16:59;4.75;;;2.70;;
25868;SDS011;13688;53.154;18.136;2023-02-22T10:28:43;3.30;;;2.10;;
25868;SDS011;13688;53.154;18.136;2023-02-22T10:34:40;3.53;;;2.43;;
25868;SDS011;13688;53.154;18.136;2023-02-22T10:45:36;4.57;;;3.00;;
25868;SDS011;13688;53.154;18.136;2023-02-22T10:51:01;4.13;;;2.60;;
25868;SDS011;13688;53.154;18.136;2023-02-22T10:56:27;5.10;;;3.07;;
25868;SDS011;13688;53.154;18.136;2023-02-22T11:02:07;4.90;;;3.10;;
25868;SDS011;13688;53.154;18.136;2023-02-22T11:07:39;11.97;;;6.97;;
25868;SDS011;13688;53.154;18.136;2023-02-22T11:13:09;7.47;;;3.25;;
25868;SDS011;13688;53.154;18.136;2023-02-22T11:18:40;5.37;;;3.10;;
25868;SDS011;13688;53.154;18.136;2023-02-22T11:24:11;5.40;;;2.80;;
25868;SDS011;13688;53.154;18.136;2023-02-22T11:29:37;3.52;;;2.35;;
25868;SDS011;13688;53.154;18.136;2023-02-22T11:41:02;2.50;;;1.80;;
25868;SDS011;13688;53.154;18.136;2023-02-22T11:46:39;3.40;;;2.23;;
25868;SDS011;13688;53.154;18.136;2023-02-22T11:52:22;3.15;;;1.90;;
25868;SDS011;13688;53.154;18.136;2023-02-22T11:57:56;4.07;;;2.30;;
25868;SDS011;13688;53.154;18.136;2023-02-22T12:20:29;3.13;;;2.17;;
25868;SDS011;13688;53.154;18.136;2023-02-22T12:26:19;4.77;;;2.60;;
25868;SDS011;13688;53.154;18.136;2023-02-22T12:43:24;4.40;;;2.67;;
25868;SDS011;13688;53.154;18.136;2023-02-22T12:49:13;4.03;;;2.63;;
25868;SDS011;13688;53.154;18.136;2023-02-22T13:01:04;5.63;;;3.23;;
25868;SDS011;13688;53.154;18.136;2023-02-22T13:06:48;5.90;;;3.20;;
25868;SDS011;13688;53.154;18.136;2023-02-22T13:12:18;5.27;;;3.10;;
25868;SDS011;13688;53.154;18.136;2023-02-22T13:18:24;5.20;;;3.20;;
25868;SDS011;13688;53.154;18.136;2023-02-22T13:24:02;4.30;;;2.87;;
25868;SDS011;13688;53.154;18.136;2023-02-22T13:29:32;3.90;;;2.60;;
25868;SDS011;13688;53.154;18.136;2023-02-22T13:52:37;5.60;;;3.12;;
25868;SDS011;13688;53.154;18.136;2023-02-22T13:58:04;5.40;;;3.22;;
25868;SDS011;13688;53.154;18.136;2023-02-22T14:03:29;7.70;;;3.02;;
25868;SDS011;13688;53.154;18.136;2023-02-22T14:08:53;4.27;;;3.00;;
25868;SDS011;13688;53.154;18.136;2023-02-22T14:14:20;5.97;;;3.20;;
25868;SDS011;13688;53.154;18.136;2023-02-22T14:19:58;5.37;;;3.27;;
25868;SDS011;13688;53.154;18.136;2023-02-22T14:31:18;4.58;;;3.45;;
25868;SDS011;13688;53.154;18.136;2023-02-22T14:36:31;7.47;;;4.00;;
25868;SDS011;13688;53.154;18.136;2023-02-22T14:42:16;7.42;;;4.22;;
25868;SDS011;13688;53.154;18.136;2023-02-22T14:53:35;8.03;;;4.28;;
25868;SDS011;13688;53.154;18.136;2023-02-22T15:04:39;8.73;;;4.17;;
25868;SDS011;13688;53.154;18.136;2023-02-22T15:10:06;7.65;;;4.25;;
25868;SDS011;13688;53.154;18.136;2023-02-22T15:15:58;7.75;;;4.40;;
25868;SDS011;13688;53.154;18.136;2023-02-22T15:21:23;7.22;;;4.28;;
25868;SDS011;13688;53.154;18.136;2023-02-22T15:26:49;10.28;;;4.75;;
25868;SDS011;13688;53.154;18.136;2023-02-22T15:32:29;7.17;;;4.40;;
25868;SDS011;13688;53.154;18.136;2023-02-22T15:37:59;8.00;;;4.53;;
25868;SDS011;13688;53.154;18.136;2023-02-22T15:43:24;7.15;;;4.45;;
25868;SDS011;13688;53.154;18.136;2023-02-22T15:49:04;15.50;;;7.25;;
25868;SDS011;13688;53.154;18.136;2023-02-22T15:54:37;9.18;;;5.28;;
25868;SDS011;13688;53.154;18.136;2023-02-22T16:00:02;9.53;;;5.70;;
25868;SDS011;13688;53.154;18.136;2023-02-22T16:05:45;8.40;;;5.50;;
25868;SDS011;13688;53.154;18.136;2023-02-22T16:11:13;8.40;;;5.47;;
25868;SDS011;13688;53.154;18.136;2023-02-22T16:16:40;9.57;;;5.63;;
25868;SDS011;13688;53.154;18.136;2023-02-22T16:22:24;12.43;;;6.40;;
25868;SDS011;13688;53.154;18.136;2023-02-22T16:27:59;11.10;;;5.80;;
25868;SDS011;13688;53.154;18.136;2023-02-22T16:33:39;10.90;;;6.17;;
25868;SDS011;13688;53.154;18.136;2023-02-22T16:39:05;14.37;;;7.07;;
25868;SDS011;13688;53.154;18.136;2023-02-22T16:44:44;17.20;;;8.40;;
25868;SDS011;13688;53.154;18.136;2023-02-22T16:50:06;16.00;;;8.47;;
25868;SDS011;13688;53.154;18.136;2023-02-22T16:55:30;17.63;;;8.77;;
25868;SDS011;13688;53.154;18.136;2023-02-22T17:00:53;14.28;;;7.30;;
25868;SDS011;13688;53.154;18.136;2023-02-22T17:06:15;14.95;;;8.05;;
25868;SDS011;13688;53.154;18.136;2023-02-22T17:11:38;16.10;;;7.80;;
25868;SDS011;13688;53.154;18.136;2023-02-22T17:17:03;16.30;;;9.27;;
25868;SDS011;13688;53.154;18.136;2023-02-22T17:22:28;32.03;;;15.90;;
25868;SDS011;13688;53.154;18.136;2023-02-22T17:27:52;21.52;;;10.13;;
25868;SDS011;13688;53.154;18.136;2023-02-22T17:33:18;19.43;;;9.63;;
25868;SDS011;13688;53.154;18.136;2023-02-22T17:38:43;20.15;;;10.25;;
25868;SDS011;13688;53.154;18.136;2023-02-22T17:44:06;18.05;;;9.40;;
25868;SDS011;13688;53.154;18.136;2023-02-22T17:49:28;19.33;;;9.03;;
25868;SDS011;13688;53.154;18.136;2023-02-22T17:54:51;20.50;;;8.93;;
25868;SDS011;13688;53.154;18.136;2023-02-22T18:00:15;17.43;;;8.73;;
25868;SDS011;13688;53.154;18.136;2023-02-22T18:05:44;19.23;;;8.63;;
25868;SDS011;13688;53.154;18.136;2023-02-22T18:11:09;17.95;;;8.08;;
25868;SDS011;13688;53.154;18.136;2023-02-22T18:16:31;13.97;;;7.53;;
25868;SDS011;13688;53.154;18.136;2023-02-22T18:21:54;17.80;;;8.77;;
25868;SDS011;13688;53.154;18.136;2023-02-22T18:27:17;13.38;;;6.97;;
25868;SDS011;13688;53.154;18.136;2023-02-22T18:32:39;11.55;;;6.00;;
25868;SDS011;13688;53.154;18.136;2023-02-22T18:38:02;14.50;;;6.83;;
25868;SDS011;13688;53.154;18.136;2023-02-22T18:43:28;15.35;;;6.40;;
25868;SDS011;13688;53.154;18.136;2023-02-22T18:48:53;17.67;;;7.72;;
25868;SDS011;13688;53.154;18.136;2023-02-22T18:54:16;19.23;;;8.10;;
25868;SDS011;13688;53.154;18.136;2023-02-22T18:59:41;33.45;;;18.37;;
25868;SDS011;13688;53.154;18.136;2023-02-22T19:05:04;19.30;;;8.95;;
25868;SDS011;13688;53.154;18.136;2023-02-22T19:10:27;17.80;;;8.43;;
25868;SDS011;13688;53.154;18.136;2023-02-22T19:15:52;14.63;;;7.10;;
25868;SDS011;13688;53.154;18.136;2023-02-22T19:21:16;17.35;;;8.98;;
25868;SDS011;13688;53.154;18.136;2023-02-22T19:26:40;20.12;;;9.23;;
25868;SDS011;13688;53.154;18.136;2023-02-22T19:32:03;31.27;;;10.90;;
25868;SDS011;13688;53.154;18.136;2023-02-22T19:37:28;27.93;;;11.77;;
25868;SDS011;13688;53.154;18.136;2023-02-22T19:42:55;17.87;;;9.30;;
25868;SDS011;13688;53.154;18.136;2023-02-22T19:48:18;17.77;;;9.77;;
25868;SDS011;13688;53.154;18.136;2023-02-22T19:53:44;18.17;;;9.30;;
25868;SDS011;13688;53.154;18.136;2023-02-22T19:59:09;17.53;;;8.40;;
25868;SDS011;13688;53.154;18.136;2023-02-22T20:04:33;19.42;;;9.08;;
25868;SDS011;13688;53.154;18.136;2023-02-22T20:09:57;21.35;;;9.23;;
25868;SDS011;13688;53.154;18.136;2023-02-22T20:15:21;15.60;;;8.57;;
25868;SDS011;13688;53.154;18.136;2023-02-22T20:20:44;18.07;;;9.20;;
25868;SDS011;13688;53.154;18.136;2023-02-22T20:26:08;21.45;;;10.23;;
25868;SDS011;13688;53.154;18.136;2023-02-22T20:31:35;21.40;;;9.63;;
25868;SDS011;13688;53.154;18.136;2023-02-22T20:36:59;15.20;;;8.13;;
25868;SDS011;13688;53.154;18.136;2023-02-22T20:42:24;15.03;;;7.87;;
25868;SDS011;13688;53.154;18.136;2023-02-22T20:47:50;16.67;;;8.80;;
25868;SDS011;13688;53.154;18.136;2023-02-22T20:53:14;13.72;;;6.55;;
25868;SDS011;13688;53.154;18.136;2023-02-22T20:58:37;13.20;;;6.58;;
25868;SDS011;13688;53.154;18.136;2023-02-22T21:04:01;15.30;;;6.83;;
25868;SDS011;13688;53.154;18.136;2023-02-22T21:09:26;14.23;;;6.83;;
25868;SDS011;13688;53.154;18.136;2023-02-22T21:14:51;12.05;;;5.62;;
25868;SDS011;13688;53.154;18.136;2023-02-22T21:20:16;11.48;;;6.75;;
25868;SDS011;13688;53.154;18.136;2023-02-22T21:25:51;11.53;;;6.50;;
25868;SDS011;13688;53.154;18.136;2023-02-22T21:31:16;12.35;;;6.20;;
25868;SDS011;13688;53.154;18.136;2023-02-22T21:36:43;10.50;;;5.55;;
25868;SDS011;13688;53.154;18.136;2023-02-22T21:42:09;9.35;;;5.53;;
25868;SDS011;13688;53.154;18.136;2023-02-22T21:47:33;11.30;;;6.80;;
25868;SDS011;13688;53.154;18.136;2023-02-22T21:52:58;14.45;;;6.42;;
25868;SDS011;13688;53.154;18.136;2023-02-22T21:58:21;14.63;;;6.55;;
25868;SDS011;13688;53.154;18.136;2023-02-22T22:03:46;14.83;;;7.08;;
25868;SDS011;13688;53.154;18.136;2023-02-22T22:09:13;15.15;;;7.72;;
25868;SDS011;13688;53.154;18.136;2023-02-22T22:14:39;16.97;;;8.50;;
25868;SDS011;13688;53.154;18.136;2023-02-22T22:20:04;14.05;;;7.35;;
25868;SDS011;13688;53.154;18.136;2023-02-22T22:25:32;16.20;;;8.08;;
25868;SDS011;13688;53.154;18.136;2023-02-22T22:30:55;19.05;;;8.33;;
25868;SDS011;13688;53.154;18.136;2023-02-22T22:36:23;19.62;;;8.58;;
25868;SDS011;13688;53.154;18.136;2023-02-22T22:41:50;14.90;;;7.67;;
25868;SDS011;13688;53.154;18.136;2023-02-22T22:47:14;17.35;;;8.28;;
25868;SDS011;13688;53.154;18.136;2023-02-22T22:52:38;14.75;;;8.45;;
25868;SDS011;13688;53.154;18.136;2023-02-22T22:58:02;16.45;;;8.70;;
25868;SDS011;13688;53.154;18.136;2023-02-22T23:03:27;15.27;;;7.90;;
25868;SDS011;13688;53.154;18.136;2023-02-22T23:09:16;18.37;;;8.97;;
25868;SDS011;13688;53.154;18.136;2023-02-22T23:14:40;21.83;;;10.20;;
25868;SDS011;13688;53.154;18.136;2023-02-22T23:20:05;17.90;;;9.50;;
25868;SDS011;13688;53.154;18.136;2023-02-22T23:25:40;17.63;;;9.23;;
25868;SDS011;13688;53.154;18.136;2023-02-22T23:31:21;19.77;;;9.53;;
25868;SDS011;13688;53.154;18.136;2023-02-22T23:36:45;17.60;;;9.27;;
25868;SDS011;13688;53.154;18.136;2023-02-22T23:42:09;18.93;;;9.43;;
25868;SDS011;13688;53.154;18.136;2023-02-22T23:47:32;18.00;;;8.87;;
25868;SDS011;13688;53.154;18.136;2023-02-22T23:52:58;18.83;;;8.23;;
25868;SDS011;13688;53.154;18.136;2023-02-22T23:58:20;17.53;;;8.73;;
